Time;durP1;ratioP1;P1;durP2;ratioP2;P2;SDS_P1;SDS_P2;PMS_P1;PMS_P2;Temp;Humidity;BMP_temperature;BMP_pressure;BME280_temperature;BME280_humidity;BME280_pressure;Samples;Min_cycle;Max_cycle;Signal;HPM_P1;HPM_P2
2022/03/05 00:02:04;;;;;;;9.77;5.70;;;;;;;;;;5021735;28;20257;-91
2022/03/05 00:04:31;;;;;;;10.20;6.10;;;;;;;;;;5029690;28;20207;-91
2022/03/05 00:06:58;;;;;;;9.57;6.27;;;;;;;;;;5026183;28;20238;-90
2022/03/05 00:09:25;;;;;;;8.57;5.63;;;;;;;;;;5024518;28;20219;-91
2022/03/05 00:11:54;;;;;;;10.00;5.60;;;;;;;;;;5032770;28;20206;-91
2022/03/05 00:14:21;;;;;;;9.37;5.80;;;;;;;;;;5033127;28;20276;-90
2022/03/05 00:16:48;;;;;;;9.53;5.40;;;;;;;;;;5026694;28;20238;-91
2022/03/05 00:19:16;;;;;;;9.43;5.63;;;;;;;;;;5032884;28;20242;-91
2022/03/05 00:21:43;;;;;;;12.20;6.70;;;;;;;;;;5030640;28;20258;-90
2022/03/05 00:24:10;;;;;;;10.63;6.80;;;;;;;;;;5019004;28;20211;-90
2022/03/05 00:26:38;;;;;;;10.53;5.73;;;;;;;;;;5026953;28;20780;-90
2022/03/05 00:29:08;;;;;;;9.30;5.77;;;;;;;;;;5032599;28;20202;-91
2022/03/05 00:31:35;;;;;;;8.97;4.73;;;;;;;;;;5027395;28;20214;-91
2022/03/05 00:34:02;;;;;;;8.93;5.13;;;;;;;;;;5032019;28;20256;-91
2022/03/05 00:36:30;;;;;;;7.60;5.53;;;;;;;;;;5032812;28;20261;-91
2022/03/05 00:38:58;;;;;;;9.00;6.07;;;;;;;;;;5033018;28;20206;-90
2022/03/05 00:41:25;;;;;;;9.13;5.17;;;;;;;;;;5027625;28;20226;-90
2022/03/05 00:43:52;;;;;;;8.37;5.00;;;;;;;;;;5031595;28;20573;-90
2022/03/05 00:46:21;;;;;;;7.63;5.63;;;;;;;;;;5032634;28;20210;-90
2022/03/05 00:49:04;;;;;;;9.20;6.00;;;;;;;;;;5032785;28;20714;-90
2022/03/05 00:51:31;;;;;;;9.27;5.63;;;;;;;;;;5022539;28;20285;-90
2022/03/05 00:53:58;;;;;;;7.40;4.50;;;;;;;;;;5031960;28;20229;-90
2022/03/05 00:56:26;;;;;;;12.77;6.93;;;;;;;;;;5031926;28;20225;-90
2022/03/05 00:58:53;;;;;;;9.70;5.47;;;;;;;;;;5031433;28;20690;-91
2022/03/05 01:01:22;;;;;;;9.30;5.70;;;;;;;;;;5026511;28;20324;-90
2022/03/05 01:03:49;;;;;;;8.57;5.40;;;;;;;;;;5032002;28;20207;-90
2022/03/05 01:06:16;;;;;;;8.23;5.53;;;;;;;;;;5032274;28;20806;-91
2022/03/05 01:08:44;;;;;;;9.13;5.70;;;;;;;;;;5023745;28;20892;-90
2022/03/05 01:11:15;;;;;;;11.00;5.33;;;;;;;;;;5027621;28;20214;-90
2022/03/05 01:13:42;;;;;;;9.43;5.70;;;;;;;;;;5032338;28;20538;-90
2022/03/05 01:16:09;;;;;;;10.27;5.70;;;;;;;;;;5027817;28;20195;-90
2022/03/05 01:18:38;;;;;;;10.87;6.37;;;;;;;;;;5031884;28;20230;-91
2022/03/05 01:21:06;;;;;;;10.80;5.63;;;;;;;;;;5032295;28;20684;-91
2022/03/05 01:23:33;;;;;;;9.13;6.13;;;;;;;;;;5031166;28;20541;-90
2022/03/05 01:26:00;;;;;;;13.07;7.00;;;;;;;;;;5027519;28;20202;-90
2022/03/05 01:28:28;;;;;;;12.67;7.27;;;;;;;;;;5032150;28;20276;-90
2022/03/05 01:30:55;;;;;;;11.03;7.00;;;;;;;;;;5032316;28;20226;-90
2022/03/05 01:33:23;;;;;;;12.13;6.87;;;;;;;;;;5024118;28;20207;-91
2022/03/05 01:35:52;;;;;;;8.90;6.13;;;;;;;;;;5027335;28;20576;-90
2022/03/05 01:38:19;;;;;;;10.27;6.60;;;;;;;;;;5023450;28;20235;-90
2022/03/05 01:40:47;;;;;;;9.07;6.00;;;;;;;;;;5024001;28;20209;-90
2022/03/05 01:43:14;;;;;;;8.87;5.57;;;;;;;;;;5027015;28;20233;-91
2022/03/05 01:45:42;;;;;;;7.10;5.23;;;;;;;;;;5032251;28;20199;-90
2022/03/05 01:48:09;;;;;;;9.50;5.63;;;;;;;;;;5030335;28;20315;-90
2022/03/05 01:50:36;;;;;;;9.57;6.23;;;;;;;;;;5026056;28;20243;-90
2022/03/05 01:53:05;;;;;;;9.33;5.53;;;;;;;;;;5030852;28;20875;-90
2022/03/05 01:55:32;;;;;;;8.43;5.10;;;;;;;;;;5032053;28;20233;-90
2022/03/05 01:58:00;;;;;;;8.60;5.30;;;;;;;;;;5026570;28;20230;-90
2022/03/05 02:00:27;;;;;;;9.50;5.50;;;;;;;;;;5019816;28;20202;-90
2022/03/05 02:02:54;;;;;;;9.63;5.40;;;;;;;;;;5019931;28;20208;-91
2022/03/05 02:05:23;;;;;;;8.40;4.93;;;;;;;;;;5030868;28;20199;-90
2022/03/05 02:07:50;;;;;;;7.30;4.83;;;;;;;;;;5031996;28;20687;-90
2022/03/05 02:10:20;;;;;;;8.77;5.57;;;;;;;;;;5025774;28;20630;-90
2022/03/05 02:12:47;;;;;;;9.50;5.63;;;;;;;;;;5029032;28;20214;-90
2022/03/05 02:15:15;;;;;;;7.97;4.93;;;;;;;;;;5032352;28;20265;-90
2022/03/05 02:17:42;;;;;;;12.70;5.70;;;;;;;;;;5031363;28;20235;-90
2022/03/05 02:20:10;;;;;;;9.70;5.77;;;;;;;;;;5020512;28;20265;-90
2022/03/05 02:22:40;;;;;;;8.10;5.20;;;;;;;;;;5028402;28;20249;-90
2022/03/05 02:25:07;;;;;;;9.10;4.80;;;;;;;;;;5032219;28;20214;-90
2022/03/05 02:27:35;;;;;;;8.67;5.97;;;;;;;;;;5013623;28;20249;-90
2022/03/05 02:30:02;;;;;;;11.97;5.27;;;;;;;;;;5020742;28;20206;-90
2022/03/05 02:32:29;;;;;;;8.87;5.43;;;;;;;;;;5030941;28;20293;-90
2022/03/05 02:34:57;;;;;;;10.40;5.40;;;;;;;;;;5032965;28;20345;-91
2022/03/05 02:37:24;;;;;;;9.63;6.00;;;;;;;;;;5029970;28;20280;-90
2022/03/05 02:39:53;;;;;;;9.77;6.03;;;;;;;;;;5035113;28;20203;-90
2022/03/05 02:42:20;;;;;;;9.30;5.60;;;;;;;;;;5035384;28;20272;-90
2022/03/05 02:44:47;;;;;;;10.17;5.97;;;;;;;;;;5035588;28;20257;-90
2022/03/05 02:47:15;;;;;;;8.10;5.73;;;;;;;;;;5027533;28;20234;-90
2022/03/05 02:49:42;;;;;;;9.03;5.80;;;;;;;;;;5035223;28;20206;-91
2022/03/05 02:52:09;;;;;;;9.60;5.63;;;;;;;;;;5034572;28;20218;-90
2022/03/05 02:54:37;;;;;;;8.43;5.53;;;;;;;;;;5031957;28;20234;-90
2022/03/05 02:57:05;;;;;;;8.93;5.80;;;;;;;;;;5026321;28;20560;-90
2022/03/05 02:59:33;;;;;;;7.10;4.73;;;;;;;;;;5033848;28;20249;-90
2022/03/05 03:02:00;;;;;;;9.33;5.93;;;;;;;;;;5015346;28;20816;-90
2022/03/05 03:04:27;;;;;;;11.47;5.53;;;;;;;;;;5024419;28;20297;-90
2022/03/05 03:06:55;;;;;;;8.90;5.27;;;;;;;;;;5033061;28;20219;-90
2022/03/05 03:09:23;;;;;;;7.60;5.60;;;;;;;;;;5034994;28;20214;-90
2022/03/05 03:11:50;;;;;;;10.63;5.80;;;;;;;;;;5031211;28;20219;-90
2022/03/05 03:14:19;;;;;;;12.03;6.30;;;;;;;;;;5026276;28;20631;-90
2022/03/05 03:16:47;;;;;;;6.93;4.70;;;;;;;;;;5034509;28;20217;-90
2022/03/05 03:19:14;;;;;;;10.57;5.73;;;;;;;;;;5022785;28;20215;-90
2022/03/05 03:21:41;;;;;;;7.50;4.73;;;;;;;;;;5020016;28;20203;-90
2022/03/05 03:24:08;;;;;;;10.87;6.20;;;;;;;;;;5028949;28;20207;-90
2022/03/05 03:26:36;;;;;;;10.67;6.33;;;;;;;;;;5034298;28;20601;-90
2022/03/05 03:29:03;;;;;;;12.37;5.80;;;;;;;;;;5028144;28;20619;-90
2022/03/05 03:31:32;;;;;;;8.33;5.07;;;;;;;;;;5020980;28;20235;-90
2022/03/05 03:33:59;;;;;;;11.27;6.07;;;;;;;;;;5033681;28;20233;-90
2022/03/05 03:36:26;;;;;;;10.20;4.93;;;;;;;;;;5030572;28;20219;-90
2022/03/05 03:38:54;;;;;;;10.80;5.73;;;;;;;;;;5026614;28;20235;-90
2022/03/05 03:41:21;;;;;;;9.77;5.37;;;;;;;;;;5032995;28;20222;-90
2022/03/05 03:43:48;;;;;;;13.53;6.17;;;;;;;;;;5034159;28;20265;-90
2022/03/05 03:46:15;;;;;;;10.67;5.63;;;;;;;;;;5031255;28;20284;-90
2022/03/05 03:48:44;;;;;;;10.70;6.07;;;;;;;;;;5022172;28;20738;-90
2022/03/05 03:51:11;;;;;;;11.37;6.40;;;;;;;;;;5026415;28;20242;-90
2022/03/05 03:53:39;;;;;;;11.33;5.83;;;;;;;;;;5030806;28;20198;-90
2022/03/05 03:56:06;;;;;;;11.27;5.90;;;;;;;;;;5030246;28;20264;-90
2022/03/05 03:58:33;;;;;;;10.03;5.70;;;;;;;;;;5032758;28;20623;-90
2022/03/05 04:01:01;;;;;;;10.90;5.87;;;;;;;;;;5033839;28;20214;-90
2022/03/05 04:03:28;;;;;;;10.00;6.30;;;;;;;;;;5023663;28;20230;-90
2022/03/05 04:05:57;;;;;;;10.97;6.43;;;;;;;;;;5033426;28;20210;-90
2022/03/05 04:08:42;;;;;;;9.77;5.40;;;;;;;;;;5033847;28;20253;-90
2022/03/05 04:11:09;;;;;;;13.03;7.03;;;;;;;;;;5030668;28;20241;-90
2022/03/05 04:13:36;;;;;;;11.27;6.07;;;;;;;;;;5025539;28;20210;-90
2022/03/05 04:16:04;;;;;;;7.97;5.00;;;;;;;;;;5033601;28;20588;-90
2022/03/05 04:18:31;;;;;;;10.90;6.07;;;;;;;;;;5027605;28;20301;-90
2022/03/05 04:21:01;;;;;;;10.30;5.07;;;;;;;;;;5031978;28;20233;-90
2022/03/05 04:23:29;;;;;;;7.47;4.80;;;;;;;;;;5032946;28;20226;-90
2022/03/05 04:25:56;;;;;;;11.23;6.53;;;;;;;;;;5032621;28;20206;-90
2022/03/05 04:28:23;;;;;;;12.57;6.73;;;;;;;;;;5029038;28;20268;-90
2022/03/05 04:30:50;;;;;;;10.23;6.30;;;;;;;;;;5033014;28;20741;-90
2022/03/05 04:33:18;;;;;;;11.93;6.50;;;;;;;;;;5033186;28;20277;-90
2022/03/05 04:35:45;;;;;;;9.17;6.00;;;;;;;;;;5033179;28;20237;-90
2022/03/05 04:38:14;;;;;;;10.83;6.83;;;;;;;;;;5027411;28;20905;-90
2022/03/05 04:40:41;;;;;;;12.37;7.37;;;;;;;;;;5027026;28;20265;-90
2022/03/05 04:43:08;;;;;;;11.63;6.90;;;;;;;;;;5032940;28;20206;-90
2022/03/05 04:45:36;;;;;;;8.80;6.03;;;;;;;;;;5031699;28;20555;-89
2022/03/05 04:48:03;;;;;;;10.13;5.23;;;;;;;;;;5024225;28;20280;-90
2022/03/05 04:50:31;;;;;;;12.00;7.33;;;;;;;;;;5032553;28;20218;-90
2022/03/05 04:52:58;;;;;;;12.53;6.90;;;;;;;;;;5032292;28;20613;-90
2022/03/05 04:55:27;;;;;;;14.20;6.93;;;;;;;;;;5024246;28;20211;-90
2022/03/05 04:57:54;;;;;;;10.30;6.17;;;;;;;;;;5030456;28;20239;-91
2022/03/05 05:00:21;;;;;;;11.30;6.10;;;;;;;;;;5020548;28;20269;-90
2022/03/05 05:02:49;;;;;;;10.30;5.83;;;;;;;;;;5013568;28;20219;-91
2022/03/05 05:05:16;;;;;;;10.73;6.83;;;;;;;;;;5032161;28;20218;-90
2022/03/05 05:07:43;;;;;;;10.73;6.60;;;;;;;;;;5031770;28;20269;-90
2022/03/05 05:10:10;;;;;;;12.17;6.70;;;;;;;;;;5033050;28;20256;-90
2022/03/05 05:12:39;;;;;;;11.70;6.90;;;;;;;;;;5030599;28;20226;-90
2022/03/05 05:15:07;;;;;;;10.97;5.93;;;;;;;;;;5031699;28;20647;-90
2022/03/05 05:17:36;;;;;;;14.60;7.40;;;;;;;;;;5033022;28;20222;-91
2022/03/05 14:52:11;;;;;;;8.43;4.10;;;;;;;;;;5030648;28;20289;-91
2022/03/05 14:54:38;;;;;;;6.53;4.20;;;;;;;;;;5028328;28;20257;-91
2022/03/05 14:57:06;;;;;;;4.33;3.70;;;;;;;;;;5026727;28;20225;-91
2022/03/05 14:59:33;;;;;;;8.37;4.07;;;;;;;;;;5038744;28;20230;-91
2022/03/05 15:02:00;;;;;;;6.00;4.17;;;;;;;;;;5039445;28;20272;-91
2022/03/05 15:04:28;;;;;;;7.97;5.00;;;;;;;;;;5038748;28;20252;-92
2022/03/05 15:06:55;;;;;;;6.60;4.07;;;;;;;;;;5034237;28;20213;-91
2022/03/05 15:09:27;;;;;;;4.67;3.93;;;;;;;;;;5029495;28;20231;-92
2022/03/05 15:11:55;;;;;;;5.60;4.10;;;;;;;;;;5037052;28;20218;-91
2022/03/05 15:14:22;;;;;;;7.30;4.37;;;;;;;;;;5033780;28;20348;-91
2022/03/05 15:16:52;;;;;;;8.50;5.13;;;;;;;;;;5033201;28;20211;-91
2022/03/05 15:19:21;;;;;;;6.87;4.13;;;;;;;;;;5026975;28;20226;-92
2022/03/05 15:21:49;;;;;;;6.37;4.93;;;;;;;;;;5030006;28;20253;-91
2022/03/05 15:24:17;;;;;;;7.57;4.73;;;;;;;;;;5030394;28;20210;-92
2022/03/05 15:26:48;;;;;;;9.20;5.33;;;;;;;;;;5025058;28;20269;-91
2022/03/05 15:29:15;;;;;;;6.33;4.30;;;;;;;;;;5017953;28;20230;-91
2022/03/05 15:31:43;;;;;;;9.77;6.13;;;;;;;;;;5030072;28;20234;-91
2022/03/05 15:34:10;;;;;;;8.23;4.97;;;;;;;;;;5030298;28;20207;-91
2022/03/05 15:36:38;;;;;;;6.57;4.57;;;;;;;;;;5016982;28;20559;-91
2022/03/05 15:39:06;;;;;;;6.43;4.77;;;;;;;;;;5028338;28;20222;-92
2022/03/05 15:41:33;;;;;;;6.70;4.03;;;;;;;;;;5026010;28;20253;-92
2022/03/05 15:44:02;;;;;;;7.07;4.20;;;;;;;;;;5025646;28;20215;-92
2022/03/05 15:46:29;;;;;;;6.67;4.50;;;;;;;;;;5018705;28;20241;-93
2022/03/05 15:48:56;;;;;;;7.13;4.80;;;;;;;;;;5028842;28;20278;-92
2022/03/05 15:51:23;;;;;;;7.60;4.37;;;;;;;;;;5029769;28;20226;-90
2022/03/05 15:53:51;;;;;;;4.80;3.63;;;;;;;;;;5022996;28;20585;-91
2022/03/05 15:56:19;;;;;;;6.93;4.67;;;;;;;;;;5022215;28;20265;-91
2022/03/05 15:58:47;;;;;;;9.63;5.30;;;;;;;;;;5029008;28;20321;-91
2022/03/05 16:01:16;;;;;;;4.93;3.57;;;;;;;;;;5016769;28;20252;-91
2022/03/05 16:03:43;;;;;;;6.77;4.43;;;;;;;;;;5026667;28;20226;-91
2022/03/05 16:06:11;;;;;;;10.37;4.93;;;;;;;;;;5029438;28;20210;-92
2022/03/05 16:08:38;;;;;;;6.20;4.00;;;;;;;;;;5020803;28;20218;-90
2022/03/05 16:11:05;;;;;;;7.30;4.10;;;;;;;;;;5021872;28;20198;-93
2022/03/05 16:13:33;;;;;;;6.40;4.00;;;;;;;;;;5029750;28;20276;-91
2022/03/05 16:16:00;;;;;;;8.20;3.93;;;;;;;;;;5029949;28;20210;-90
2022/03/05 16:18:29;;;;;;;6.90;5.43;;;;;;;;;;5019303;28;20199;-91
2022/03/05 16:20:56;;;;;;;7.40;3.73;;;;;;;;;;5028127;28;20276;-92
2022/03/05 16:23:23;;;;;;;7.33;3.83;;;;;;;;;;5029375;28;20202;-92
2022/03/05 16:25:51;;;;;;;7.50;4.73;;;;;;;;;;5026081;28;20268;-92
2022/03/05 16:28:18;;;;;;;4.70;2.80;;;;;;;;;;5024904;28;20659;-92
2022/03/05 16:30:45;;;;;;;9.43;4.23;;;;;;;;;;5028779;28;20230;-92
2022/03/05 16:33:12;;;;;;;5.33;3.50;;;;;;;;;;5024632;28;20207;-91
2022/03/05 16:35:41;;;;;;;6.93;4.03;;;;;;;;;;5023771;28;20214;-92
2022/03/05 16:38:09;;;;;;;7.37;4.33;;;;;;;;;;5028761;28;20211;-90
2022/03/05 16:40:36;;;;;;;6.87;4.30;;;;;;;;;;5029048;28;20288;-92
2022/03/05 16:43:03;;;;;;;7.73;4.87;;;;;;;;;;5022162;28;20207;-91
2022/03/05 16:45:31;;;;;;;5.47;4.00;;;;;;;;;;5027921;28;20219;-93
2022/03/05 16:47:59;;;;;;;5.70;4.00;;;;;;;;;;5028580;28;20206;-93
2022/03/05 16:50:26;;;;;;;10.10;5.07;;;;;;;;;;5028827;28;20301;-92
2022/03/05 16:52:55;;;;;;;9.53;4.50;;;;;;;;;;5018595;28;20230;-92
2022/03/05 16:55:23;;;;;;;7.90;4.63;;;;;;;;;;5028381;28;20203;-92
2022/03/05 16:57:50;;;;;;;3.93;2.47;;;;;;;;;;5028976;28;20229;-93
2022/03/05 17:00:18;;;;;;;6.53;4.30;;;;;;;;;;5012268;28;20235;-91
2022/03/05 17:02:46;;;;;;;7.23;4.63;;;;;;;;;;5019759;28;20738;-92
2022/03/05 17:05:14;;;;;;;7.43;4.73;;;;;;;;;;5024813;28;20285;-92
2022/03/05 17:07:42;;;;;;;9.40;5.40;;;;;;;;;;5023982;28;20662;-92
2022/03/05 17:10:11;;;;;;;7.70;5.80;;;;;;;;;;5022546;28;20222;-91
2022/03/05 17:12:38;;;;;;;7.80;5.73;;;;;;;;;;5017723;28;20227;-91
2022/03/05 17:15:07;;;;;;;8.10;5.33;;;;;;;;;;5028434;28;20819;-91
2022/03/05 17:17:34;;;;;;;8.83;5.83;;;;;;;;;;5028575;28;20272;-93
2022/03/05 19:27:46;;;;;;;10.30;6.33;;;;;;;;;;5010947;28;20572;-92
2022/03/05 19:30:14;;;;;;;12.43;7.07;;;;;;;;;;5001163;28;20920;-92
2022/03/05 19:32:42;;;;;;;7.20;5.27;;;;;;;;;;4990056;28;20266;-93
2022/03/05 19:35:12;;;;;;;10.57;6.30;;;;;;;;;;4988221;28;20238;-91
2022/03/05 19:37:40;;;;;;;9.07;5.33;;;;;;;;;;4994523;28;20204;-93
2022/03/05 19:40:08;;;;;;;11.40;5.37;;;;;;;;;;4985450;28;20228;-91
2022/03/05 19:42:36;;;;;;;7.33;5.07;;;;;;;;;;5007904;28;20227;-92
2022/03/05 19:45:05;;;;;;;7.30;5.20;;;;;;;;;;5016160;28;20208;-92
2022/03/05 19:47:33;;;;;;;9.30;5.27;;;;;;;;;;5001717;28;20220;-93
2022/03/05 19:50:00;;;;;;;11.23;6.57;;;;;;;;;;4987210;28;20227;-93
2022/03/05 19:52:27;;;;;;;9.63;5.93;;;;;;;;;;4994907;28;20254;-92
2022/03/05 19:54:55;;;;;;;9.93;4.90;;;;;;;;;;4993751;28;20684;-92
2022/03/05 19:57:22;;;;;;;10.90;7.10;;;;;;;;;;4988632;28;20204;-91
2022/03/05 19:59:49;;;;;;;11.23;7.00;;;;;;;;;;4993260;28;20942;-91
2022/03/05 20:02:18;;;;;;;9.30;5.57;;;;;;;;;;4994426;28;20620;-91
2022/03/05 20:04:46;;;;;;;9.27;5.57;;;;;;;;;;4994403;28;20842;-92
2022/03/05 20:07:24;;;;;;;10.53;5.70;;;;;;;;;;4983408;28;20252;-90
2022/03/05 20:09:54;;;;;;;7.90;4.90;;;;;;;;;;4978692;28;20239;-91
2022/03/05 20:12:23;;;;;;;10.30;5.50;;;;;;;;;;4978772;28;20262;-90
2022/03/05 20:14:50;;;;;;;11.10;6.27;;;;;;;;;;4977668;28;20228;-92
2022/03/05 20:17:19;;;;;;;9.73;6.10;;;;;;;;;;4986590;28;20204;-92
2022/03/05 20:19:47;;;;;;;8.97;5.87;;;;;;;;;;4994123;28;20232;-90
2022/03/05 20:22:15;;;;;;;14.27;7.73;;;;;;;;;;4996954;28;20234;-91
2022/03/05 20:24:43;;;;;;;13.27;7.30;;;;;;;;;;4997096;28;20208;-90
2022/03/05 20:27:11;;;;;;;10.53;6.47;;;;;;;;;;4995704;28;20220;-92
2022/03/05 20:29:38;;;;;;;12.97;6.63;;;;;;;;;;4995075;28;20278;-90
2022/03/05 20:32:06;;;;;;;8.77;5.67;;;;;;;;;;4995672;28;20211;-90
2022/03/05 20:34:35;;;;;;;9.83;6.23;;;;;;;;;;4994675;28;20236;-91
2022/03/05 20:37:03;;;;;;;13.33;7.60;;;;;;;;;;4995247;28;20207;-90
2022/03/05 20:39:31;;;;;;;12.03;6.77;;;;;;;;;;4994797;28;20232;-90
2022/03/05 20:41:58;;;;;;;11.13;7.43;;;;;;;;;;4995308;28;20216;-91
2022/03/05 20:44:26;;;;;;;10.70;6.10;;;;;;;;;;4994630;28;20219;-92
2022/03/05 20:46:54;;;;;;;8.53;5.90;;;;;;;;;;4994470;28;20203;-90
2022/03/05 20:49:21;;;;;;;13.20;7.90;;;;;;;;;;4994262;28;20245;-90
2022/03/05 20:51:50;;;;;;;9.73;6.70;;;;;;;;;;4994036;28;20243;-91
2022/03/05 20:54:18;;;;;;;9.13;6.10;;;;;;;;;;4993882;28;20220;-91
2022/03/05 20:56:46;;;;;;;13.33;7.10;;;;;;;;;;4993627;28;20329;-90
2022/03/05 20:59:13;;;;;;;19.00;9.90;;;;;;;;;;4993538;28;20227;-90
2022/03/05 21:01:41;;;;;;;10.03;6.07;;;;;;;;;;4993997;28;20208;-90
2022/03/05 21:04:08;;;;;;;15.50;7.87;;;;;;;;;;4994334;28;20211;-90
2022/03/05 21:06:36;;;;;;;9.93;6.57;;;;;;;;;;4993872;28;20233;-90
2022/03/05 21:09:06;;;;;;;11.43;6.40;;;;;;;;;;4994008;28;20236;-90
2022/03/05 21:11:36;;;;;;;10.30;5.90;;;;;;;;;;4994417;28;20212;-90
2022/03/05 21:14:05;;;;;;;12.20;7.43;;;;;;;;;;4993963;28;20224;-90
2022/03/05 21:16:33;;;;;;;12.27;7.77;;;;;;;;;;4994334;28;20334;-90
2022/03/05 21:19:01;;;;;;;10.07;5.90;;;;;;;;;;4994053;28;20319;-90
2022/03/05 21:21:29;;;;;;;11.93;6.03;;;;;;;;;;4993820;28;20212;-90
2022/03/05 21:23:58;;;;;;;10.57;6.83;;;;;;;;;;4994098;28;20204;-89
2022/03/05 21:26:29;;;;;;;13.20;6.63;;;;;;;;;;4993895;28;20212;-90
2022/03/05 21:28:57;;;;;;;11.30;6.13;;;;;;;;;;4993967;28;20223;-90
2022/03/05 21:31:25;;;;;;;13.20;7.50;;;;;;;;;;4994305;28;20295;-90
2022/03/05 21:33:55;;;;;;;12.63;7.97;;;;;;;;;;4994005;28;20232;-89
2022/03/05 21:36:24;;;;;;;9.80;6.60;;;;;;;;;;4993734;28;20211;-89
2022/03/05 21:38:53;;;;;;;11.87;7.30;;;;;;;;;;4994046;28;20306;-89
2022/03/05 21:41:24;;;;;;;14.27;7.83;;;;;;;;;;4997367;28;20266;-90
2022/03/05 21:46:46;;;;;;;12.17;6.57;;;;;;;;;;4938044;29;20664;-89
2022/03/05 22:04:36;;;;;;;13.70;7.37;;;;;;;;;;4995872;28;20230;-89
2022/03/05 22:07:22;;;;;;;12.53;7.23;;;;;;;;;;4995779;28;20231;-89
2022/03/05 22:12:59;;;;;;;13.43;7.60;;;;;;;;;;4997255;28;20214;-89
2022/03/05 22:15:37;;;;;;;13.70;7.63;;;;;;;;;;4997201;28;20692;-89
2022/03/05 22:30:06;;;;;;;11.30;7.00;;;;;;;;;;4997191;28;20199;-90
2022/03/05 22:42:08;;;;;;;9.93;5.90;;;;;;;;;;4997714;28;20191;-90
2022/03/05 22:45:05;;;;;;;13.67;7.30;;;;;;;;;;4996717;28;20188;-90
2022/03/05 22:53:59;;;;;;;11.63;6.57;;;;;;;;;;5001420;28;20187;-90
2022/03/05 22:56:28;;;;;;;12.80;6.83;;;;;;;;;;4998582;28;20294;-90
2022/03/05 22:59:15;;;;;;;10.87;6.80;;;;;;;;;;4998434;28;20212;-90
2022/03/05 23:13:17;;;;;;;12.37;6.73;;;;;;;;;;4996403;28;20295;-89
2022/03/05 23:15:46;;;;;;;11.57;7.10;;;;;;;;;;4995327;28;20236;-90
2022/03/05 23:18:24;;;;;;;12.33;7.23;;;;;;;;;;4996605;28;20212;-90
2022/03/05 23:24:18;;;;;;;9.47;6.20;;;;;;;;;;4996697;28;20184;-89
